Terminal Aerodrome Forecast
Issued by NWS Twin Cities, MN

Home | Current Version | Previous Version | Graphics & Text | Print | Product List | Glossary On
Versions: 1 2 3 4 5 6 7 8 9 10 11 12 13 14 15 16 17 18 19 20 21 22 23 24 25 26 27 28
000
FTUS43 KMPX 170200 AAA
TAFMSP
TAF AMD
KMSP 170251Z 1703/1806 31009KT P6SM -SN OVC020
      TEMPO 1703/1707 P6SM NSW SCT020 BKN040
     FM171500 32006KT P6SM BKN025 BKN090
     FM172200 34005KT P6SM SCT025 SCT250=

USA.gov is the U.S. government's official web portal to all federal, state and local government web resources and services.